Terminal Aerodrome Forecast
Issued by NWS Mt. Holly, NJ

Home | Current Version | Previous Version | Text Only | Print | Product List | Glossary On
Versions: 1 2 3 4 5 6 7 8 9 10 11 12 13 14
436
FTUS41 KPHI 250534
TAFTTN
TAF
KTTN 250534Z 2506/2606 21003KT P6SM BKN100
     FM251300 26009KT P6SM SCT070 BKN150
      TEMPO 2522/2524 5SM -TSRA OVC040CB
     FM260100 27007KT P6SM BKN100=

USA.gov is the U.S. government's official web portal to all federal, state and local government web resources and services.